Time;durP1;ratioP1;P1;durP2;ratioP2;P2;SDS_P1;SDS_P2;PMS_P1;PMS_P2;Temp;Humidity;BMP_temperature;BMP_pressure;BME280_temperature;BME280_humidity;BME280_pressure;Samples;Min_cycle;Max_cycle;Signal;HPM_P1;HPM_P2
2022/10/25 00:01:29;;;;;;;1.65;0.40;;;;;;;17.15;59.89;97242.50;4866711;28;20222;-74
2022/10/25 00:03:55;;;;;;;2.35;0.73;;;;;;;17.20;59.75;97239.78;4867480;28;20125;-74
2022/10/25 00:06:21;;;;;;;1.83;0.40;;;;;;;17.20;59.93;97247.69;4867671;29;20677;-75
2022/10/25 00:08:46;;;;;;;5.57;0.38;;;;;;;17.27;59.63;97248.09;4867442;29;20172;-74
2022/10/25 00:11:20;;;;;;;1.23;0.40;;;;;;;17.29;59.73;97245.19;4883542;28;20300;-74
2022/10/25 00:13:48;;;;;;;3.22;0.40;;;;;;;17.22;60.22;97240.28;4880275;28;20180;-74
2022/10/25 00:16:25;;;;;;;1.83;0.40;;;;;;;17.12;60.24;97238.59;4853276;28;20336;-75
2022/10/25 00:18:50;;;;;;;1.20;0.32;;;;;;;17.17;59.86;97237.72;4834665;29;20572;-74
2022/10/25 00:21:16;;;;;;;2.38;0.65;;;;;;;17.37;59.36;97241.91;4854563;29;20209;-74
2022/10/25 00:23:41;;;;;;;2.47;0.50;;;;;;;17.30;59.57;97237.00;4869464;29;20249;-74
2022/10/25 00:26:08;;;;;;;1.95;0.45;;;;;;;17.38;59.46;97249.53;4866601;29;20237;-75
2022/10/25 00:28:34;;;;;;;1.10;0.30;;;;;;;17.22;59.72;97246.34;4867063;28;20273;-74
2022/10/25 00:31:11;;;;;;;0.75;0.50;;;;;;;17.30;59.52;97242.28;4851170;29;20605;-74
2022/10/25 00:33:37;;;;;;;2.92;1.02;;;;;;;17.10;60.38;97250.47;4849355;29;20160;-74
2022/10/25 00:36:04;;;;;;;6.30;0.77;;;;;;;17.34;59.95;97237.22;4866921;29;20194;-74
2022/10/25 00:38:29;;;;;;;2.95;0.52;;;;;;;17.35;59.94;97247.47;4869201;29;20195;-74
2022/10/25 00:40:55;;;;;;;2.78;0.50;;;;;;;17.36;59.75;97249.03;4856025;29;20668;-74
2022/10/25 00:43:41;;;;;;;2.58;0.40;;;;;;;17.52;59.69;97249.56;4866978;28;20195;-74
2022/10/25 00:46:22;;;;;;;3.70;0.60;;;;;;;17.51;59.26;97242.75;4863114;28;20586;-74
2022/10/25 00:49:10;;;;;;;2.25;0.47;;;;;;;17.54;58.88;97257.19;4881931;28;20219;-74
2022/10/25 00:51:48;;;;;;;1.60;0.38;;;;;;;17.33;59.87;97257.50;4866775;29;20314;-74
2022/10/25 00:54:16;;;;;;;2.05;0.35;;;;;;;17.42;59.45;97258.41;4848305;29;20223;-74
2022/10/25 00:56:43;;;;;;;2.75;0.80;;;;;;;17.33;59.37;97257.50;4882438;28;20623;-74
2022/10/25 00:59:11;;;;;;;1.88;0.70;;;;;;;17.36;59.50;97262.19;4862691;29;20353;-74
2022/10/25 01:01:37;;;;;;;2.45;0.50;;;;;;;17.25;60.05;97260.75;4849961;29;20286;-76
2022/10/25 01:04:05;;;;;;;3.55;0.88;;;;;;;17.24;60.57;97259.22;4864677;29;20409;-75
2022/10/25 01:06:36;;;;;;;2.28;1.00;;;;;;;17.27;60.66;97271.00;4865735;29;20245;-76
2022/10/25 01:09:02;;;;;;;1.75;0.60;;;;;;;17.19;60.91;97269.81;4866358;28;20294;-75
2022/10/25 01:11:28;;;;;;;2.45;0.50;;;;;;;17.13;60.98;97269.09;4848977;29;20653;-75
2022/10/25 01:13:54;;;;;;;2.75;0.70;;;;;;;17.34;60.49;97263.53;4867979;28;20353;-75
2022/10/25 01:16:31;;;;;;;1.08;0.32;;;;;;;17.52;60.04;97268.00;4849908;29;20333;-75
2022/10/25 01:19:24;;;;;;;2.75;0.57;;;;;;;17.35;61.22;97273.00;4864838;28;20642;-75
2022/10/25 01:21:56;;;;;;;4.47;0.47;;;;;;;17.49;60.45;97260.69;4867947;29;20294;-75
2022/10/25 01:24:43;;;;;;;4.00;0.85;;;;;;;17.64;59.73;97275.47;4866743;29;20252;-75
2022/10/25 01:27:30;;;;;;;2.40;0.63;;;;;;;17.73;59.65;97265.81;4881726;28;20321;-75
2022/10/25 01:30:06;;;;;;;1.55;0.40;;;;;;;17.59;60.23;97270.28;4868538;28;20210;-75
2022/10/25 01:32:34;;;;;;;2.28;0.50;;;;;;;17.52;60.20;97269.88;4862341;29;20152;-75
2022/10/25 01:35:12;;;;;;;3.53;0.70;;;;;;;17.54;60.03;97265.09;4868241;28;20194;-75
2022/10/25 01:37:42;;;;;;;2.58;0.90;;;;;;;17.38;60.56;97269.81;4882481;28;20227;-75
2022/10/25 01:40:17;;;;;;;4.10;0.60;;;;;;;17.50;60.71;97261.47;4852071;29;20121;-75
2022/10/25 01:43:08;;;;;;;1.80;0.52;;;;;;;17.48;61.04;97264.38;4867300;29;20243;-75
2022/10/25 01:45:41;;;;;;;3.80;0.75;;;;;;;17.61;60.25;97265.50;4876267;28;20180;-75
2022/10/25 01:48:10;;;;;;;3.95;0.50;;;;;;;17.56;60.34;97263.75;4850722;29;20633;-75
2022/10/25 01:50:39;;;;;;;1.90;0.40;;;;;;;17.66;60.21;97262.78;4868616;28;20195;-75
2022/10/25 01:53:05;;;;;;;2.92;0.40;;;;;;;17.52;60.69;97260.09;4866658;29;20191;-74
2022/10/25 01:55:36;;;;;;;2.47;0.30;;;;;;;17.75;59.98;97268.97;4866786;29;20252;-75
2022/10/25 01:58:07;;;;;;;3.53;0.70;;;;;;;17.73;59.80;97260.56;4874189;28;20290;-75
2022/10/25 02:00:42;;;;;;;4.65;0.90;;;;;;;17.42;60.70;97249.72;4865624;28;20378;-75
2022/10/25 02:03:20;;;;;;;2.88;0.60;;;;;;;17.54;60.26;97257.19;4870500;29;20173;-75
2022/10/25 02:06:06;;;;;;;2.45;0.40;;;;;;;17.64;60.10;97256.25;4872001;28;20214;-75
2022/10/25 02:08:53;;;;;;;3.47;0.90;;;;;;;17.79;59.73;97261.28;4870713;29;20278;-75
2022/10/25 02:11:27;;;;;;;2.85;0.88;;;;;;;17.77;59.61;97258.16;4870349;28;20370;-75
2022/10/25 02:14:15;;;;;;;2.00;0.57;;;;;;;17.79;59.42;97259.41;4850006;28;20373;-75
2022/10/25 02:16:51;;;;;;;4.05;0.50;;;;;;;17.58;60.25;97255.53;4869930;29;20283;-74
2022/10/25 02:19:21;;;;;;;3.03;0.82;;;;;;;17.46;60.66;97252.56;4869262;29;20243;-75
2022/10/25 02:21:47;;;;;;;4.28;1.15;;;;;;;17.63;60.17;97255.44;4870268;29;20266;-75
2022/10/25 02:24:18;;;;;;;4.32;0.50;;;;;;;17.75;60.15;97258.44;4869963;29;20647;-75
2022/10/25 02:26:43;;;;;;;3.97;0.70;;;;;;;17.61;60.26;97257.59;4866818;29;20242;-75
2022/10/25 02:29:10;;;;;;;5.25;0.90;;;;;;;17.56;60.51;97249.78;4888563;28;20296;-75
2022/10/25 02:31:36;;;;;;;1.67;0.35;;;;;;;17.60;60.38;97250.78;4860645;29;20234;-75
2022/10/25 02:34:02;;;;;;;4.38;0.60;;;;;;;17.44;60.64;97250.22;4870559;29;20327;-75
2022/10/25 02:36:28;;;;;;;2.30;0.50;;;;;;;17.49;60.44;97244.88;4871620;28;20621;-75
2022/10/25 02:38:53;;;;;;;3.25;0.43;;;;;;;17.47;60.57;97244.38;4838526;29;20764;-75
2022/10/25 02:41:20;;;;;;;3.47;0.50;;;;;;;17.41;60.43;97246.31;4854557;29;20350;-75
2022/10/25 02:43:45;;;;;;;2.25;0.50;;;;;;;17.38;60.36;97244.25;4885575;28;20632;-75
2022/10/25 02:46:13;;;;;;;4.40;1.10;;;;;;;17.47;60.40;97251.50;4862414;28;20279;-75
2022/10/25 02:48:39;;;;;;;3.90;0.70;;;;;;;17.30;60.64;97247.53;4868675;29;20180;-75
2022/10/25 02:51:05;;;;;;;2.17;0.40;;;;;;;17.35;61.02;97250.09;4871535;28;20657;-75
2022/10/25 02:53:31;;;;;;;2.30;0.70;;;;;;;17.36;61.07;97245.63;4854190;29;20168;-75
2022/10/25 02:56:02;;;;;;;3.42;0.50;;;;;;;17.39;60.93;97239.78;4869068;29;20223;-75
2022/10/25 02:58:29;;;;;;;3.33;0.77;;;;;;;17.39;61.26;97255.56;4869391;29;20212;-75
2022/10/25 03:00:55;;;;;;;2.65;0.47;;;;;;;17.28;61.01;97248.91;4869732;29;20175;-74
2022/10/25 03:03:20;;;;;;;2.40;0.80;;;;;;;17.30;61.51;97252.78;4871473;28;20266;-75
2022/10/25 03:05:45;;;;;;;1.85;0.40;;;;;;;17.39;61.18;97251.09;4853442;29;20219;-75
2022/10/25 03:08:11;;;;;;;2.70;0.50;;;;;;;17.45;60.88;97253.66;4885662;28;20214;-75
2022/10/25 03:10:36;;;;;;;3.55;0.52;;;;;;;17.39;61.18;97253.72;4867666;28;20244;-75
2022/10/25 03:13:02;;;;;;;2.78;0.43;;;;;;;17.28;61.51;97256.78;4884946;28;20286;-75
2022/10/25 03:15:27;;;;;;;6.53;1.00;;;;;;;17.26;61.85;97256.31;4853195;29;20176;-75
2022/10/25 03:17:53;;;;;;;2.70;0.57;;;;;;;17.41;61.06;97248.97;4853395;29;20282;-75
2022/10/25 03:20:18;;;;;;;2.60;0.70;;;;;;;17.39;60.92;97255.56;4884732;28;20198;-75
2022/10/25 03:22:44;;;;;;;4.57;0.55;;;;;;;17.33;61.14;97260.13;4853538;29;20646;-75
2022/10/25 03:25:09;;;;;;;3.70;0.82;;;;;;;17.39;61.55;97259.00;4868187;29;20661;-75
2022/10/25 03:27:34;;;;;;;5.45;0.60;;;;;;;17.41;61.26;97254.22;4837637;29;20699;-75
2022/10/25 03:30:00;;;;;;;5.18;1.05;;;;;;;17.47;60.92;97267.31;4868803;29;20200;-75
2022/10/25 03:32:25;;;;;;;3.50;1.02;;;;;;;17.44;61.24;97267.88;4891536;28;20250;-75
2022/10/25 03:34:50;;;;;;;2.47;0.80;;;;;;;17.33;61.48;97265.38;4869223;29;20188;-75
2022/10/25 03:37:16;;;;;;;1.52;0.55;;;;;;;17.52;60.95;97270.63;4868430;29;20242;-75
2022/10/25 03:39:41;;;;;;;4.43;0.60;;;;;;;17.48;61.27;97269.66;4871092;28;20588;-75
2022/10/25 03:42:07;;;;;;;4.30;1.00;;;;;;;17.50;61.20;97272.78;4884578;28;20369;-75
2022/10/25 03:44:32;;;;;;;3.78;0.57;;;;;;;17.46;61.33;97265.72;4850919;28;20633;-75
2022/10/25 03:46:57;;;;;;;5.00;0.77;;;;;;;17.41;61.27;97277.91;4893742;28;20707;-75
2022/10/25 03:49:24;;;;;;;2.60;0.80;;;;;;;17.45;61.17;97280.75;4884041;28;20195;-75
2022/10/25 03:51:49;;;;;;;2.72;0.80;;;;;;;17.47;61.39;97278.63;4853077;29;20207;-75
2022/10/25 03:54:15;;;;;;;3.05;0.93;;;;;;;17.27;62.19;97277.03;4884793;28;20165;-75
2022/10/25 03:56:40;;;;;;;3.90;0.65;;;;;;;17.43;62.15;97280.25;4868249;29;20649;-75
2022/10/25 03:59:08;;;;;;;5.50;0.70;;;;;;;17.48;62.22;97280.19;4868917;29;20142;-75
2022/10/25 04:01:34;;;;;;;6.22;1.15;;;;;;;17.44;62.40;97288.94;4868283;29;20142;-75
2022/10/25 04:03:59;;;;;;;3.30;0.70;;;;;;;17.52;62.10;97293.56;4853907;29;20578;-75
2022/10/25 04:06:24;;;;;;;1.77;0.52;;;;;;;17.58;61.61;97295.03;4866970;29;20732;-75
2022/10/25 04:08:50;;;;;;;6.32;1.30;;;;;;;17.50;62.61;97290.44;4868246;29;20222;-75
2022/10/25 04:11:15;;;;;;;2.72;0.55;;;;;;;17.56;61.84;97291.91;4851864;29;20252;-75
2022/10/25 04:13:40;;;;;;;3.00;0.90;;;;;;;17.37;62.75;97290.06;4852485;28;20295;-75
2022/10/25 04:16:07;;;;;;;1.95;1.00;;;;;;;17.44;62.58;97289.72;4836271;29;20219;-75
2022/10/25 04:18:32;;;;;;;4.75;1.25;;;;;;;17.47;62.08;97281.25;4868046;29;20376;-75
2022/10/25 04:20:57;;;;;;;4.80;0.77;;;;;;;17.48;62.25;97279.38;4870405;29;20268;-76
2022/10/25 04:23:23;;;;;;;3.55;1.65;;;;;;;17.53;61.93;97284.56;4864332;29;20334;-75
2022/10/25 04:25:48;;;;;;;3.75;0.75;;;;;;;17.53;62.33;97276.69;4893208;28;20206;-75
2022/10/25 04:28:14;;;;;;;3.08;0.80;;;;;;;17.59;61.95;97280.81;4851775;28;20168;-75
2022/10/25 04:30:39;;;;;;;5.90;1.40;;;;;;;17.52;62.18;97277.75;4869624;28;20247;-75
2022/10/25 04:33:05;;;;;;;2.53;0.85;;;;;;;17.65;61.76;97278.88;4868057;29;20372;-75
2022/10/25 04:35:30;;;;;;;5.63;1.05;;;;;;;17.62;62.19;97282.09;4883414;28;20199;-75
2022/10/25 04:37:57;;;;;;;3.95;1.10;;;;;;;17.60;62.43;97283.16;4868202;29;20202;-75
2022/10/25 04:40:22;;;;;;;7.22;0.82;;;;;;;17.56;62.38;97278.75;4882685;28;20282;-75
2022/10/25 04:42:47;;;;;;;7.00;1.20;;;;;;;17.45;62.75;97279.97;4852113;29;20337;-75
2022/10/25 04:45:12;;;;;;;5.97;1.20;;;;;;;17.50;62.96;97287.81;4850788;29;20243;-75
2022/10/25 04:47:38;;;;;;;2.90;1.40;;;;;;;17.60;62.41;97298.19;4865008;29;20286;-75
2022/10/25 04:50:04;;;;;;;4.95;0.85;;;;;;;17.67;62.08;97293.31;4867248;29;20297;-75
2022/10/25 04:52:29;;;;;;;4.22;1.35;;;;;;;17.59;62.61;97291.34;4869560;29;20701;-75
2022/10/25 04:54:55;;;;;;;3.80;0.88;;;;;;;17.59;62.50;97284.22;4867351;29;20219;-75
2022/10/25 04:57:20;;;;;;;2.63;0.90;;;;;;;17.63;62.16;97286.28;4882785;28;20132;-75
2022/10/25 04:59:46;;;;;;;3.10;0.75;;;;;;;17.72;62.06;97292.47;4851366;29;20202;-75
2022/10/25 05:02:11;;;;;;;5.05;1.35;;;;;;;17.67;62.17;97298.59;4866611;29;20250;-76
2022/10/25 05:04:36;;;;;;;3.20;0.75;;;;;;;17.62;62.39;97290.00;4866749;29;20254;-75
2022/10/25 05:07:02;;;;;;;2.65;0.50;;;;;;;17.60;62.49;97293.69;4866297;29;20787;-75
2022/10/25 05:09:27;;;;;;;2.72;0.68;;;;;;;17.64;62.35;97306.28;4881954;28;20262;-75
2022/10/25 05:11:52;;;;;;;4.28;0.98;;;;;;;17.60;62.38;97303.44;4882037;28;20717;-75
2022/10/25 05:14:18;;;;;;;2.83;0.68;;;;;;;17.61;62.44;97310.25;4892833;28;20644;-75
2022/10/25 05:16:43;;;;;;;6.78;1.20;;;;;;;17.59;62.42;97312.41;4848870;29;20203;-75
2022/10/25 05:19:08;;;;;;;6.78;0.90;;;;;;;17.58;62.41;97303.72;4866080;29;20148;-75
2022/10/25 05:21:34;;;;;;;1.95;0.80;;;;;;;17.54;62.22;97309.84;4881478;28;20278;-75
2022/10/25 05:24:00;;;;;;;5.13;0.77;;;;;;;17.64;61.99;97309.69;4882120;28;20250;-76
2022/10/25 05:26:26;;;;;;;3.20;0.88;;;;;;;17.61;62.04;97299.72;4865753;29;20203;-75
2022/10/25 05:28:52;;;;;;;5.18;0.70;;;;;;;17.58;62.16;97302.94;4865880;29;20277;-75
2022/10/25 05:31:20;;;;;;;4.28;1.08;;;;;;;17.68;62.30;97302.78;4865995;29;20231;-75
2022/10/25 05:33:51;;;;;;;4.05;1.10;;;;;;;17.64;62.69;97299.16;4849033;29;20200;-75
2022/10/25 05:36:17;;;;;;;3.85;0.93;;;;;;;17.59;62.38;97304.50;4890631;28;20221;-75
2022/10/25 05:38:42;;;;;;;2.75;1.00;;;;;;;17.59;62.68;97307.13;4888171;28;20327;-75
2022/10/25 05:41:09;;;;;;;2.80;0.70;;;;;;;17.64;62.51;97316.81;4881191;28;20176;-75
2022/10/25 05:43:35;;;;;;;2.22;0.50;;;;;;;17.63;62.25;97320.50;4865481;28;20289;-75
2022/10/25 05:46:05;;;;;;;4.07;0.70;;;;;;;17.61;62.88;97318.16;4881794;28;20266;-75
2022/10/25 05:48:32;;;;;;;4.40;0.98;;;;;;;17.53;63.02;97331.97;4863321;28;20188;-75
2022/10/25 05:51:08;;;;;;;2.75;0.93;;;;;;;17.71;62.94;97320.63;4866557;29;20166;-75
2022/10/25 05:53:33;;;;;;;5.03;0.85;;;;;;;17.57;62.52;97330.34;4882046;28;20202;-75
2022/10/25 05:55:59;;;;;;;2.75;0.85;;;;;;;17.55;62.95;97329.84;4881028;28;20284;-75
2022/10/25 05:58:24;;;;;;;2.80;0.95;;;;;;;17.60;62.66;97335.81;4866548;29;20207;-76
2022/10/25 06:00:49;;;;;;;4.70;0.95;;;;;;;17.59;63.15;97333.47;4865816;28;20172;-75
2022/10/25 06:03:15;;;;;;;5.80;1.15;;;;;;;17.41;63.65;97333.19;4850532;29;20365;-75
2022/10/25 06:05:40;;;;;;;3.72;0.98;;;;;;;17.50;63.45;97329.91;4867763;28;20300;-75
2022/10/25 06:08:05;;;;;;;4.15;0.70;;;;;;;17.36;63.52;97337.75;4882050;28;20700;-75
2022/10/25 06:10:31;;;;;;;3.10;1.02;;;;;;;17.46;63.17;97347.34;4866521;29;20689;-75
2022/10/25 06:12:56;;;;;;;4.65;1.13;;;;;;;17.45;63.45;97343.16;4865881;28;20273;-75
2022/10/25 06:15:21;;;;;;;10.75;1.52;;;;;;;17.53;63.31;97342.50;4867921;28;20715;-75
2022/10/25 06:17:47;;;;;;;5.75;1.20;;;;;;;17.58;62.75;97355.59;4849971;29;20194;-75
2022/10/25 06:20:12;;;;;;;5.63;1.20;;;;;;;17.52;63.34;97348.84;4882092;28;20198;-75
2022/10/25 06:22:37;;;;;;;7.40;1.42;;;;;;;17.49;63.22;97359.94;4850843;29;20202;-75
2022/10/25 06:25:03;;;;;;;5.40;1.83;;;;;;;17.32;64.11;97355.94;4848944;29;20194;-75
2022/10/25 06:27:28;;;;;;;6.60;0.93;;;;;;;17.42;63.42;97355.03;4866289;29;20254;-75
2022/10/25 06:29:54;;;;;;;4.18;1.45;;;;;;;17.41;63.74;97367.41;4868229;28;20562;-75
2022/10/25 06:32:19;;;;;;;8.60;1.10;;;;;;;17.52;63.26;97372.53;4864615;28;20654;-75
2022/10/25 06:34:44;;;;;;;2.88;0.65;;;;;;;17.46;63.30;97365.75;4868281;29;20667;-75
2022/10/25 06:37:10;;;;;;;3.65;0.80;;;;;;;17.52;63.09;97370.69;4865957;28;20377;-75
2022/10/25 06:39:35;;;;;;;5.18;0.90;;;;;;;17.46;63.85;97371.03;4881626;28;20169;-75
2022/10/25 06:42:00;;;;;;;7.38;1.20;;;;;;;17.52;63.29;97373.31;4849279;29;20164;-75
2022/10/25 06:44:26;;;;;;;3.58;1.13;;;;;;;17.67;62.55;97380.22;4867155;28;20660;-75
2022/10/25 06:46:51;;;;;;;3.65;0.85;;;;;;;17.62;62.49;97382.94;4882917;28;20618;-75
2022/10/25 06:49:16;;;;;;;4.18;0.80;;;;;;;17.59;63.26;97391.38;4869325;29;20177;-75
2022/10/25 06:51:42;;;;;;;3.88;0.90;;;;;;;17.62;63.11;97387.41;4868809;29;20236;-75
2022/10/25 06:54:08;;;;;;;4.00;0.70;;;;;;;17.60;63.29;97387.69;4885068;28;20194;-75
2022/10/25 06:56:34;;;;;;;3.95;1.30;;;;;;;17.67;62.95;97390.75;4853222;29;20189;-76
2022/10/25 06:58:59;;;;;;;5.57;0.93;;;;;;;17.73;62.56;97402.00;4853159;29;20228;-75
2022/10/25 07:01:25;;;;;;;5.45;0.90;;;;;;;17.52;63.65;97396.22;4868930;29;20549;-75
2022/10/25 07:03:52;;;;;;;5.13;1.20;;;;;;;17.60;63.31;97401.63;4867685;28;20286;-75
2022/10/25 07:06:23;;;;;;;4.75;0.75;;;;;;;17.66;63.35;97402.34;4884372;28;20268;-76
2022/10/25 07:08:52;;;;;;;4.00;0.95;;;;;;;17.62;63.69;97404.00;4871061;29;20180;-75
2022/10/25 07:11:19;;;;;;;5.68;1.92;;;;;;;17.58;64.04;97401.16;4866361;29;20267;-75
2022/10/25 07:13:44;;;;;;;4.70;0.75;;;;;;;17.66;63.67;97402.34;4885629;28;20226;-76
2022/10/25 07:16:12;;;;;;;4.30;0.90;;;;;;;17.77;62.66;97409.03;4868964;29;20626;-75
2022/10/25 07:18:38;;;;;;;3.42;1.02;;;;;;;17.63;63.17;97404.75;4844514;29;20202;-75
2022/10/25 07:21:06;;;;;;;2.42;1.00;;;;;;;17.70;63.25;97411.25;4869432;29;20641;-75
2022/10/25 07:23:33;;;;;;;4.43;1.13;;;;;;;17.75;63.14;97413.03;4853469;29;20188;-75
2022/10/25 07:25:58;;;;;;;3.50;0.68;;;;;;;17.71;63.38;97410.19;4871173;28;20639;-75
2022/10/25 07:28:24;;;;;;;5.25;1.83;;;;;;;17.72;63.55;97416.25;4869474;29;20203;-75
2022/10/25 07:30:50;;;;;;;4.90;0.95;;;;;;;17.72;63.19;97414.38;4862708;29;20237;-75
2022/10/25 07:33:17;;;;;;;4.40;1.15;;;;;;;17.75;62.60;97415.66;4868642;29;20082;-75
2022/10/25 07:35:47;;;;;;;6.43;1.20;;;;;;;17.82;63.10;97420.56;4852884;29;20418;-75
2022/10/25 07:38:13;;;;;;;3.85;1.00;;;;;;;17.52;63.67;97422.56;4868763;29;20255;-75
2022/10/25 07:40:39;;;;;;;5.00;1.40;;;;;;;17.72;63.21;97427.56;4853372;29;20579;-75
2022/10/25 07:43:05;;;;;;;3.50;0.95;;;;;;;17.68;63.57;97434.44;4853090;29;20230;-75
2022/10/25 07:45:30;;;;;;;12.32;2.00;;;;;;;17.70;63.37;97427.06;4864453;28;20712;-75
2022/10/25 07:47:55;;;;;;;5.53;1.33;;;;;;;17.79;63.12;97429.84;4853893;29;20364;-75
2022/10/25 07:50:21;;;;;;;4.82;0.90;;;;;;;17.87;62.85;97433.69;4884419;28;20756;-75
2022/10/25 07:52:46;;;;;;;1.88;0.70;;;;;;;17.73;63.08;97431.72;4870895;28;20284;-75
2022/10/25 07:55:12;;;;;;;8.07;1.75;;;;;;;17.81;62.95;97440.09;4868615;29;20253;-75
2022/10/25 07:57:38;;;;;;;3.88;0.88;;;;;;;17.83;63.14;97443.22;4883826;28;20272;-75
2022/10/25 08:00:05;;;;;;;4.45;1.13;;;;;;;17.91;63.02;97445.25;4853025;29;20207;-75
2022/10/25 08:02:31;;;;;;;4.53;1.33;;;;;;;17.91;62.46;97446.03;4853240;29;20660;-75
2022/10/25 08:04:56;;;;;;;6.88;1.42;;;;;;;18.01;62.58;97442.47;4884162;28;20199;-75
2022/10/25 08:07:21;;;;;;;4.78;0.80;;;;;;;18.04;62.66;97455.03;4868619;29;20211;-75
2022/10/25 08:09:47;;;;;;;4.72;1.17;;;;;;;17.87;63.26;97455.56;4868288;29;20337;-75
2022/10/25 08:12:12;;;;;;;4.13;1.27;;;;;;;17.99;62.76;97455.13;4868771;29;20180;-75
2022/10/25 08:14:37;;;;;;;6.70;0.98;;;;;;;17.99;62.20;97454.34;4868504;28;20211;-75
2022/10/25 08:17:03;;;;;;;2.85;0.77;;;;;;;18.06;62.48;97463.47;4836598;29;20641;-75
2022/10/25 08:19:28;;;;;;;6.47;1.38;;;;;;;18.06;62.27;97452.13;4867858;29;20523;-75
2022/10/25 08:21:53;;;;;;;3.38;0.90;;;;;;;18.06;62.84;97454.75;4851521;29;20380;-75
2022/10/25 08:24:19;;;;;;;4.05;0.80;;;;;;;18.20;62.53;97454.81;4870170;28;20199;-75
2022/10/25 08:26:44;;;;;;;3.35;1.00;;;;;;;18.27;62.55;97460.53;4862586;29;20206;-75
2022/10/25 08:29:10;;;;;;;2.60;1.27;;;;;;;18.39;62.44;97462.72;4883878;28;20212;-75
2022/10/25 08:31:35;;;;;;;4.80;1.30;;;;;;;18.40;62.10;97451.88;4868543;29;20288;-75
2022/10/25 08:34:01;;;;;;;4.80;1.23;;;;;;;18.45;61.94;97438.59;4867984;29;20165;-75
2022/10/25 08:36:26;;;;;;;5.38;1.48;;;;;;;18.28;62.27;97452.34;4869578;28;20195;-75
2022/10/25 08:38:52;;;;;;;4.10;1.10;;;;;;;18.32;62.16;97455.19;4868385;29;20235;-75
2022/10/25 08:41:21;;;;;;;9.07;1.58;;;;;;;18.58;62.02;97452.16;4869847;29;20230;-75
2022/10/25 08:43:50;;;;;;;1.58;0.85;;;;;;;18.66;61.83;97454.09;4868265;28;20204;-75
2022/10/25 08:46:26;;;;;;;4.55;1.27;;;;;;;18.73;61.47;97454.53;4889533;28;20171;-75
2022/10/25 08:49:02;;;;;;;3.90;0.90;;;;;;;18.52;61.76;97448.78;4867485;29;20602;-75
2022/10/25 08:51:35;;;;;;;2.97;0.98;;;;;;;18.90;61.09;97443.41;4868025;29;20666;-75
2022/10/25 08:54:04;;;;;;;3.83;1.33;;;;;;;18.89;60.76;97453.19;4868041;28;20208;-75
2022/10/25 08:56:31;;;;;;;4.28;0.95;;;;;;;18.89;60.74;97453.19;4851713;29;20211;-75
2022/10/25 08:59:00;;;;;;;6.45;1.25;;;;;;;18.83;60.35;97446.47;4867859;29;20261;-74
2022/10/25 09:01:43;;;;;;;3.38;1.00;;;;;;;19.34;59.71;97454.50;4851937;29;20723;-75
2022/10/25 09:04:09;;;;;;;4.68;1.20;;;;;;;19.41;58.97;97457.50;4867498;29;20388;-75
2022/10/25 09:07:03;;;;;;;3.50;1.10;;;;;;;19.42;59.51;97451.94;4867764;29;20361;-75
2022/10/25 09:09:41;;;;;;;5.87;1.90;;;;;;;19.49;58.49;97456.81;4883048;28;20140;-75
2022/10/25 09:12:49;;;;;;;5.03;1.85;;;;;;;19.49;58.60;97448.13;4867685;29;20248;-75
2022/10/25 09:15:53;;;;;;;4.75;0.85;;;;;;;19.59;58.11;97456.63;4845868;29;20202;-75
2022/10/25 09:18:22;;;;;;;4.53;0.90;;;;;;;19.57;58.83;97463.25;4852225;29;20194;-75
2022/10/25 09:20:51;;;;;;;6.70;0.90;;;;;;;19.64;57.98;97458.38;4869060;28;20193;-75
2022/10/25 09:23:30;;;;;;;4.38;1.10;;;;;;;19.72;58.05;97456.88;4866893;29;20378;-75
2022/10/25 09:26:17;;;;;;;3.60;1.10;;;;;;;19.64;57.91;97456.50;4851055;29;20785;-75
2022/10/25 09:28:49;;;;;;;4.10;0.70;;;;;;;19.67;58.02;97467.56;4867114;29;20274;-75
2022/10/25 09:31:19;;;;;;;2.92;1.30;;;;;;;19.65;58.75;97460.72;4866016;28;20271;-74
2022/10/25 09:33:45;;;;;;;3.33;1.15;;;;;;;19.50;58.21;97455.75;4862239;29;20300;-75
2022/10/25 09:36:12;;;;;;;6.65;0.93;;;;;;;19.53;58.73;97463.06;4849138;29;20269;-75
2022/10/25 09:38:48;;;;;;;2.17;0.60;;;;;;;19.74;57.74;97455.56;4883076;28;20660;-75
2022/10/25 09:41:20;;;;;;;4.47;0.95;;;;;;;19.80;57.32;97461.50;4851464;29;20239;-75
2022/10/25 09:44:02;;;;;;;8.52;1.83;;;;;;;20.10;56.11;97461.91;4864281;28;20198;-75
2022/10/25 09:46:41;;;;;;;1.83;0.75;;;;;;;20.04;56.20;97455.19;4873147;28;20238;-75
2022/10/25 09:49:24;;;;;;;3.50;0.98;;;;;;;19.92;56.75;97459.13;4850878;29;20229;-75
2022/10/25 09:52:01;;;;;;;5.95;1.15;;;;;;;19.91;56.81;97449.66;4866726;29;20511;-75
2022/10/25 09:54:41;;;;;;;2.08;0.70;;;;;;;20.06;55.72;97445.09;4867005;29;20205;-75
2022/10/25 09:57:06;;;;;;;2.50;0.60;;;;;;;19.85;55.66;97458.75;4851459;29;20592;-75
2022/10/25 09:59:32;;;;;;;2.45;0.60;;;;;;;19.81;55.65;97455.16;4851444;29;20194;-74
2022/10/25 10:01:57;;;;;;;3.90;0.50;;;;;;;19.75;55.93;97458.97;4866421;29;20294;-75
2022/10/25 10:04:33;;;;;;;6.57;1.10;;;;;;;19.86;56.26;97457.69;4851521;29;20202;-74
2022/10/25 10:07:04;;;;;;;5.63;0.90;;;;;;;19.98;56.07;97465.88;4866659;29;20483;-75
2022/10/25 10:09:31;;;;;;;3.60;0.52;;;;;;;20.11;55.83;97463.47;4866948;29;20172;-75
2022/10/25 10:11:58;;;;;;;5.68;0.60;;;;;;;20.08;54.31;97464.06;4882753;28;20191;-75
2022/10/25 10:14:30;;;;;;;3.40;0.68;;;;;;;20.23;53.53;97462.94;4867001;28;20846;-75
2022/10/25 10:16:56;;;;;;;3.72;0.75;;;;;;;20.11;54.78;97466.13;4866650;29;20199;-75
2022/10/25 10:19:24;;;;;;;3.08;0.75;;;;;;;20.08;55.05;97470.13;4835518;29;20214;-75
2022/10/25 10:22:13;;;;;;;2.88;0.88;;;;;;;20.08;53.14;97472.00;4870160;29;20346;-75
2022/10/25 10:24:40;;;;;;;4.40;0.80;;;;;;;19.96;54.90;97477.81;4850816;29;20215;-75
2022/10/25 10:27:20;;;;;;;1.08;0.60;;;;;;;19.98;53.86;97473.81;4868746;28;20326;-75
2022/10/25 10:30:00;;;;;;;5.07;1.00;;;;;;;19.83;55.71;97468.84;4870214;29;20257;-75
2022/10/25 10:32:34;;;;;;;3.20;1.27;;;;;;;19.83;55.00;97471.50;4854040;29;20299;-74
2022/10/25 10:35:00;;;;;;;4.40;0.80;;;;;;;19.74;55.14;97470.56;4869827;29;20619;-75
2022/10/25 10:37:27;;;;;;;2.38;0.65;;;;;;;19.60;55.93;97470.59;4870390;29;20451;-75
2022/10/25 10:39:53;;;;;;;3.83;1.40;;;;;;;19.76;55.01;97463.19;4869883;29;20164;-75
2022/10/25 10:42:21;;;;;;;2.83;0.80;;;;;;;20.01;54.38;97478.50;4838962;29;20192;-75
2022/10/25 10:45:17;;;;;;;2.97;0.70;;;;;;;20.28;52.98;97474.19;4866603;28;20262;-75
2022/10/25 10:47:48;;;;;;;1.90;0.60;;;;;;;20.22;52.69;97467.47;4869605;29;20259;-75
2022/10/25 10:50:20;;;;;;;2.63;1.42;;;;;;;20.26;53.24;97473.69;4869681;29;20328;-75
2022/10/25 10:52:53;;;;;;;2.63;0.90;;;;;;;20.05;52.75;97475.22;4869653;29;20294;-75
2022/10/25 10:55:25;;;;;;;1.38;0.65;;;;;;;20.05;52.21;97472.59;4869823;29;20654;-76
2022/10/25 10:57:54;;;;;;;2.33;0.95;;;;;;;19.98;51.90;97471.16;4844811;29;20127;-75
2022/10/25 11:00:21;;;;;;;1.38;0.80;;;;;;;19.88;53.10;97468.72;4869587;29;20407;-75
2022/10/25 11:02:47;;;;;;;10.52;7.97;;;;;;;19.88;51.72;97462.66;4873395;28;20756;-75
2022/10/25 11:05:34;;;;;;;2.25;0.88;;;;;;;20.00;51.64;97466.34;4884918;28;20176;-75
2022/10/25 11:08:17;;;;;;;2.10;1.30;;;;;;;20.05;52.47;97464.66;4869744;29;20278;-75
2022/10/25 11:10:42;;;;;;;2.17;1.40;;;;;;;19.77;52.78;97464.72;4854086;29;20207;-75
2022/10/25 11:13:13;;;;;;;1.45;1.13;;;;;;;20.00;51.68;97469.00;4871347;29;20562;-74
2022/10/25 11:15:51;;;;;;;2.50;0.93;;;;;;;19.78;53.04;97463.66;4853551;29;20194;-74
2022/10/25 11:18:21;;;;;;;2.53;0.50;;;;;;;20.00;52.69;97471.63;4854000;29;20641;-75
2022/10/25 11:20:58;;;;;;;1.88;0.60;;;;;;;20.05;53.23;97467.31;4870144;29;20191;-75
2022/10/25 11:23:42;;;;;;;4.60;0.75;;;;;;;20.08;53.51;97475.41;4864134;29;20195;-75
2022/10/25 11:26:29;;;;;;;3.95;1.35;;;;;;;20.24;52.32;97465.28;4865271;29;20265;-75
2022/10/25 11:29:08;;;;;;;4.07;2.50;;;;;;;20.11;51.70;97466.91;4871521;29;20473;-75
2022/10/25 11:31:56;;;;;;;4.45;1.42;;;;;;;20.57;50.89;97465.81;4861886;28;20211;-75
2022/10/25 11:34:35;;;;;;;2.90;0.82;;;;;;;20.69;50.35;97462.66;4869320;29;20282;-75
2022/10/25 11:37:47;;;;;;;8.00;1.30;;;;;;;20.89;49.49;97460.59;4871235;28;20211;-75
2022/10/25 11:40:14;;;;;;;2.85;0.70;;;;;;;20.60;51.84;97467.09;4853597;29;20331;-75
2022/10/25 11:43:01;;;;;;;2.55;1.23;;;;;;;20.65;52.26;97464.34;4853564;29;20186;-75
2022/10/25 11:45:43;;;;;;;4.55;0.88;;;;;;;20.66;51.04;97465.13;4867293;28;20211;-75